Time;durP1;ratioP1;P1;durP2;ratioP2;P2;SDS_P1;SDS_P2;PMS_P1;PMS_P2;Temp;Humidity;BMP_temperature;BMP_pressure;BME280_temperature;BME280_humidity;BME280_pressure;Samples;Min_cycle;Max_cycle;Signal;HPM_P1;HPM_P2
2023/12/20 00:02:23;;;;;;;105.70;43.10;;;;;;;-2.28;100.00;100570.75;5608342;31;34022;-69
2023/12/20 00:05:26;;;;;;;104.63;42.13;;;;;;;-2.14;100.00;100572.59;5607402;31;35309;-70
2023/12/20 00:08:29;;;;;;;130.40;46.33;;;;;;;-2.20;100.00;100571.16;5608017;31;33829;-70
2023/12/20 00:11:32;;;;;;;103.78;42.50;;;;;;;-2.31;100.00;100563.94;5607665;31;34624;-70
2023/12/20 00:14:35;;;;;;;93.07;41.85;;;;;;;-2.38;100.00;100556.56;5608134;31;34023;-69
2023/12/20 00:17:38;;;;;;;96.37;44.00;;;;;;;-2.31;100.00;100555.31;5607746;31;33993;-69
2023/12/20 00:20:43;;;;;;;90.80;41.95;;;;;;;-2.32;100.00;100546.66;5607772;31;33995;-70
2023/12/20 00:23:46;;;;;;;114.43;46.08;;;;;;;-2.27;100.00;100541.22;5607733;31;34081;-70
2023/12/20 00:26:49;;;;;;;167.65;49.58;;;;;;;-2.28;100.00;100536.97;5607851;31;34114;-70
2023/12/20 00:29:52;;;;;;;171.32;49.90;;;;;;;-2.32;100.00;100538.87;5607666;31;33944;-70
2023/12/20 00:32:56;;;;;;;149.90;48.00;;;;;;;-2.37;100.00;100533.06;5606781;31;34876;-69
2023/12/20 00:36:00;;;;;;;105.55;44.97;;;;;;;-2.35;100.00;100528.66;5607891;31;33944;-68
2023/12/20 00:39:03;;;;;;;171.40;51.67;;;;;;;-2.39;100.00;100521.94;5606798;31;33998;-69
2023/12/20 00:42:06;;;;;;;155.82;50.00;;;;;;;-2.48;100.00;100522.44;5607678;31;34545;-69
2023/12/20 00:45:09;;;;;;;120.30;46.30;;;;;;;-2.39;100.00;100513.31;5607428;31;33858;-69
2023/12/20 00:48:12;;;;;;;105.00;44.95;;;;;;;-2.27;100.00;100503.09;5607332;31;34049;-69
2023/12/20 00:51:15;;;;;;;93.90;44.50;;;;;;;-2.30;100.00;100499.81;5607192;31;34021;-68
2023/12/20 00:54:18;;;;;;;22.33;8.18;;;;;;;-2.29;100.00;100491.13;5607085;31;33900;-69
2023/12/20 00:57:21;;;;;;;95.32;44.00;;;;;;;-2.13;100.00;100483.31;5607119;31;33892;-69
2023/12/20 01:00:24;;;;;;;106.40;46.28;;;;;;;-2.10;100.00;100489.19;5609437;31;34723;-69
2023/12/20 01:03:27;;;;;;;133.82;47.20;;;;;;;-2.09;100.00;100488.25;5609835;31;34762;-69
2023/12/20 01:06:30;;;;;;;118.72;46.13;;;;;;;-2.27;100.00;100492.69;5610132;31;34002;-69
2023/12/20 01:09:32;;;;;;;124.65;45.65;;;;;;;-2.17;100.00;100481.78;5609978;31;33966;-69
2023/12/20 01:12:36;;;;;;;123.90;46.28;;;;;;;-2.23;100.00;100476.00;5609457;31;33966;-69
2023/12/20 01:15:39;;;;;;;154.12;47.95;;;;;;;-2.24;100.00;100476.09;5609105;31;33851;-69
2023/12/20 01:18:42;;;;;;;158.07;50.35;;;;;;;-2.27;100.00;100471.91;5609823;31;32816;-69
2023/12/20 01:21:45;;;;;;;175.15;50.50;;;;;;;-2.28;100.00;100469.41;5609748;31;33969;-69
2023/12/20 01:24:49;;;;;;;213.00;52.30;;;;;;;-2.33;100.00;100463.63;5609797;31;34018;-69
2023/12/20 01:27:51;;;;;;;252.60;56.40;;;;;;;-2.34;100.00;100459.34;5608778;31;33944;-69
2023/12/20 01:30:54;;;;;;;201.68;50.10;;;;;;;-2.28;100.00;100457.25;5609922;31;34531;-69
2023/12/20 01:33:57;;;;;;;152.82;45.88;;;;;;;-2.09;100.00;100445.84;5609538;31;33880;-69
2023/12/20 01:37:01;;;;;;;13.43;4.68;;;;;;;-2.09;100.00;100448.44;5609502;31;34661;-69
2023/12/20 01:40:04;;;;;;;177.10;45.58;;;;;;;-2.28;100.00;100443.44;5609508;31;35007;-68
2023/12/20 01:43:09;;;;;;;166.48;47.10;;;;;;;-2.40;100.00;100441.50;5609378;31;34815;-69
2023/12/20 01:46:12;;;;;;;161.52;47.95;;;;;;;-2.41;100.00;100429.41;5609371;31;34671;-69
2023/12/20 01:49:16;;;;;;;168.00;46.58;;;;;;;-2.33;100.00;100420.31;5609540;31;33990;-69
2023/12/20 01:52:20;;;;;;;186.07;50.67;;;;;;;-2.42;100.00;100412.19;5609553;31;34037;-68
2023/12/20 01:55:25;;;;;;;25.23;7.78;;;;;;;-2.41;100.00;100413.84;5609324;31;33929;-69
2023/12/20 01:58:28;;;;;;;183.70;48.58;;;;;;;-2.33;100.00;100404.72;5609694;31;34047;-68
2023/12/20 02:01:32;;;;;;;183.85;49.05;;;;;;;-2.30;100.00;100401.09;5609716;31;34137;-68
2023/12/20 02:04:35;;;;;;;181.48;49.33;;;;;;;-2.31;100.00;100392.47;5609719;31;34756;-69
2023/12/20 02:07:38;;;;;;;10.05;4.95;;;;;;;-2.15;100.00;100383.78;5609274;31;34945;-69
2023/12/20 02:10:42;;;;;;;182.23;48.58;;;;;;;-1.97;100.00;100380.13;5608866;31;34588;-69
2023/12/20 02:13:45;;;;;;;198.32;50.67;;;;;;;-2.08;100.00;100369.53;5609563;31;34755;-69
2023/12/20 02:16:48;;;;;;;236.35;55.15;;;;;;;-2.17;100.00;100367.44;5609266;31;34108;-68
2023/12/20 02:19:51;;;;;;;206.32;51.25;;;;;;;-2.20;100.00;100358.06;5608384;31;33956;-69
2023/12/20 02:22:54;;;;;;;244.13;52.60;;;;;;;-2.26;100.00;100353.22;5609250;31;33914;-69
2023/12/20 02:25:57;;;;;;;423.35;62.55;;;;;;;-2.24;100.00;100347.03;5609333;31;34629;-69
2023/12/20 02:29:01;;;;;;;312.92;55.92;;;;;;;-2.21;100.00;100348.59;5609347;31;33960;-69
2023/12/20 02:32:04;;;;;;;314.17;55.12;;;;;;;-2.26;100.00;100341.06;5608978;31;34570;-69
2023/12/20 02:35:07;;;;;;;319.92;56.67;;;;;;;-2.28;100.00;100334.31;5608911;31;34590;-69
2023/12/20 02:38:11;;;;;;;329.05;56.58;;;;;;;-2.29;100.00;100335.22;5609424;31;34031;-69
2023/12/20 02:41:16;;;;;;;245.12;54.67;;;;;;;-2.28;100.00;100335.13;5608966;31;34742;-70
2023/12/20 02:44:19;;;;;;;281.00;54.33;;;;;;;-2.24;100.00;100328.84;5608234;31;33812;-69
2023/12/20 02:47:22;;;;;;;412.65;61.85;;;;;;;-2.11;100.00;100331.56;5608880;31;34545;-69
2023/12/20 02:50:26;;;;;;;249.35;51.85;;;;;;;-2.03;100.00;100318.13;5608466;31;33998;-72
2023/12/20 02:53:28;;;;;;;284.25;53.60;;;;;;;-1.98;100.00;100314.31;5608857;31;34631;-69
2023/12/20 02:56:33;;;;;;;500.10;69.05;;;;;;;-1.94;100.00;100315.84;5608958;31;35427;-69
2023/12/20 02:59:35;;;;;;;222.02;49.33;;;;;;;-1.92;100.00;100306.16;5608826;31;33895;-69
2023/12/20 03:02:39;;;;;;;272.48;59.35;;;;;;;-1.87;100.00;100311.09;5608018;31;34754;-69
2023/12/20 03:05:42;;;;;;;281.73;56.35;;;;;;;-2.07;100.00;100304.47;5608026;31;34480;-69
2023/12/20 03:08:45;;;;;;;203.45;53.15;;;;;;;-2.03;100.00;100305.94;5608746;31;34005;-69
2023/12/20 03:11:48;;;;;;;215.68;54.20;;;;;;;-1.98;100.00;100300.47;5608780;31;34741;-69
2023/12/20 03:14:51;;;;;;;210.25;55.45;;;;;;;-1.91;100.00;100299.19;5608579;31;34634;-69
2023/12/20 03:17:54;;;;;;;229.48;54.50;;;;;;;-1.92;100.00;100302.72;5608734;31;33935;-69
2023/12/20 03:20:58;;;;;;;179.12;50.78;;;;;;;-1.83;100.00;100305.59;5608262;31;33998;-68
2023/12/20 03:24:00;;;;;;;166.20;50.38;;;;;;;-2.02;100.00;100306.78;5608522;31;33995;-68
2023/12/20 03:27:04;;;;;;;172.52;49.35;;;;;;;-1.99;100.00;100312.66;5608513;31;34163;-69
2023/12/20 03:30:07;;;;;;;181.23;52.90;;;;;;;-1.98;100.00;100297.87;5608576;31;34067;-68
2023/12/20 03:33:11;;;;;;;182.90;52.30;;;;;;;-2.02;100.00;100307.63;5608844;31;33913;-68
2023/12/20 03:36:13;;;;;;;232.52;57.58;;;;;;;-2.01;100.00;100311.91;5608280;31;34289;-68
2023/12/20 03:39:16;;;;;;;236.40;56.15;;;;;;;-2.00;100.00;100308.37;5608356;31;34636;-68
2023/12/20 03:42:19;;;;;;;143.43;50.10;;;;;;;-2.03;100.00;100307.72;5608450;31;33859;-68
2023/12/20 03:45:22;;;;;;;132.10;50.17;;;;;;;-2.07;100.00;100304.47;5608284;31;34609;-69
2023/12/20 03:48:25;;;;;;;130.05;51.33;;;;;;;-2.05;100.00;100313.00;5608277;31;34205;-69
2023/12/20 03:51:28;;;;;;;100.93;44.80;;;;;;;-1.94;100.00;100302.84;5608545;31;33961;-69
2023/12/20 03:54:31;;;;;;;108.32;46.20;;;;;;;-2.04;100.00;100306.06;5608167;31;34721;-69
2023/12/20 03:57:34;;;;;;;132.93;47.78;;;;;;;-2.03;100.00;100302.53;5607405;31;34361;-69
2023/12/20 04:00:38;;;;;;;154.63;51.13;;;;;;;-2.04;100.00;100291.31;5608225;31;34615;-69
2023/12/20 04:03:42;;;;;;;220.18;54.97;;;;;;;-2.11;100.00;100287.38;5608431;31;34135;-69
2023/12/20 04:06:45;;;;;;;189.30;56.00;;;;;;;-2.11;100.00;100294.34;5608173;31;33984;-69
2023/12/20 04:09:50;;;;;;;205.98;55.50;;;;;;;-2.08;100.00;100294.97;5607936;31;34026;-69
2023/12/20 04:12:54;;;;;;;195.80;56.17;;;;;;;-1.97;100.00;100282.19;5607262;31;33981;-69
2023/12/20 04:15:58;;;;;;;110.97;45.83;;;;;;;-1.88;100.00;100286.84;5608104;31;35295;-68
2023/12/20 04:19:02;;;;;;;97.45;45.22;;;;;;;-1.83;100.00;100287.41;5607689;31;34001;-69
2023/12/20 04:22:06;;;;;;;159.68;51.78;;;;;;;-1.83;100.00;100287.41;5607807;31;34046;-69
2023/12/20 04:25:09;;;;;;;129.35;47.20;;;;;;;-1.90;100.00;100277.47;5607680;31;34042;-69
2023/12/20 04:28:12;;;;;;;167.43;51.37;;;;;;;-2.00;100.00;100274.59;5607541;31;33951;-70
2023/12/20 04:31:15;;;;;;;101.75;44.47;;;;;;;-1.92;100.00;100271.53;5607740;31;33941;-70
2023/12/20 04:34:18;;;;;;;131.15;48.35;;;;;;;-1.99;100.00;100249.44;5608390;31;33934;-70
2023/12/20 04:37:21;;;;;;;130.18;48.00;;;;;;;-2.09;100.00;100250.91;5610252;31;34643;-69
2023/12/20 04:40:24;;;;;;;110.45;44.15;;;;;;;-1.95;100.00;100254.34;5609315;31;34705;-69
2023/12/20 04:43:28;;;;;;;83.95;40.88;;;;;;;-2.02;100.00;100245.25;5609984;31;34763;-70
2023/12/20 04:46:31;;;;;;;97.18;42.97;;;;;;;-2.22;100.00;100243.81;5610035;31;33932;-70
2023/12/20 04:49:35;;;;;;;94.53;43.58;;;;;;;-2.26;100.00;100234.53;5609560;31;34779;-69
2023/12/20 04:52:38;;;;;;;96.72;44.70;;;;;;;-2.30;100.00;100217.47;5609927;31;34194;-73
2023/12/20 04:55:41;;;;;;;122.68;46.60;;;;;;;-2.22;100.00;100207.44;5609848;31;34156;-73
2023/12/20 04:58:44;;;;;;;114.65;43.33;;;;;;;-1.96;100.00;100210.25;5609854;31;34673;-73
2023/12/20 05:01:46;;;;;;;113.62;45.40;;;;;;;-2.14;100.00;100208.75;5610056;31;34660;-72
2023/12/20 05:04:49;;;;;;;157.50;45.03;;;;;;;-2.08;100.00;100203.22;5609540;31;33861;-72
2023/12/20 05:07:55;;;;;;;145.35;47.17;;;;;;;-2.01;100.00;100199.28;5609787;31;34100;-73
2023/12/20 05:10:59;;;;;;;129.52;46.08;;;;;;;-2.10;100.00;100205.88;5609827;31;34033;-73
2023/12/20 05:14:02;;;;;;;123.20;45.33;;;;;;;-2.08;100.00;100187.62;5609595;31;34221;-72
2023/12/20 05:17:05;;;;;;;154.80;49.22;;;;;;;-2.05;100.00;100187.41;5609666;31;33941;-73
2023/12/20 05:20:08;;;;;;;192.65;47.28;;;;;;;-2.09;100.00;100181.56;5608900;31;33945;-73
2023/12/20 05:23:13;;;;;;;294.60;56.45;;;;;;;-2.04;100.00;100173.50;5609636;31;34038;-72
2023/12/20 05:26:16;;;;;;;288.27;59.15;;;;;;;-2.10;100.00;100169.50;5609668;31;34038;-72
2023/12/20 05:29:19;;;;;;;222.45;54.78;;;;;;;-1.99;100.00;100182.69;5609594;31;34656;-73
2023/12/20 05:32:22;;;;;;;147.60;48.83;;;;;;;-2.09;100.00;100188.53;5609535;31;34028;-73
2023/12/20 05:35:25;;;;;;;155.95;51.35;;;;;;;-2.09;100.00;100193.72;5609589;31;34237;-73
2023/12/20 05:38:29;;;;;;;175.00;53.15;;;;;;;-2.04;100.00;100199.50;5609481;31;34516;-74
2023/12/20 05:41:33;;;;;;;203.27;49.33;;;;;;;-2.03;100.00;100195.97;5609508;31;33921;-72
2023/12/20 05:44:37;;;;;;;68.97;9.35;;;;;;;-1.95;100.00;100188.53;5609022;31;34575;-74
2023/12/20 05:47:40;;;;;;;175.23;47.88;;;;;;;-1.96;100.00;100182.50;5609528;31;34289;-73
2023/12/20 05:50:43;;;;;;;207.87;56.17;;;;;;;-1.96;100.00;100166.91;5609493;31;34697;-73
2023/12/20 05:53:46;;;;;;;218.23;55.22;;;;;;;-1.89;100.00;100162.97;5609474;31;34485;-73
2023/12/20 05:56:50;;;;;;;261.05;60.50;;;;;;;-1.90;100.00;100155.28;5609221;31;34152;-73
2023/12/20 05:59:53;;;;;;;152.57;53.28;;;;;;;-1.92;100.00;100164.94;5609337;31;34578;-73
2023/12/20 06:02:58;;;;;;;185.02;57.28;;;;;;;-1.77;100.00;100151.00;5595537;31;33915;-73
2023/12/20 06:06:08;;;;;;;171.65;55.00;;;;;;;-1.77;100.00;100136.22;5608451;31;34609;-73
2023/12/20 06:09:19;;;;;;;164.57;55.72;;;;;;;-1.65;100.00;100141.59;5608425;31;34593;-72
2023/12/20 06:12:22;;;;;;;167.57;56.97;;;;;;;-1.77;100.00;100151.84;5608679;31;34637;-73
2023/12/20 06:15:25;;;;;;;204.98;59.17;;;;;;;-1.72;100.00;100148.09;5608909;31;33897;-73
2023/12/20 06:18:28;;;;;;;170.00;55.63;;;;;;;-1.69;100.00;100145.34;5608113;31;33368;-73
2023/12/20 06:21:31;;;;;;;143.25;52.67;;;;;;;-1.84;100.00;100134.12;5608530;31;34143;-73
2023/12/20 06:24:34;;;;;;;135.93;52.25;;;;;;;-1.72;100.00;100159.34;5608886;31;34828;-73
2023/12/20 06:27:36;;;;;;;142.80;53.75;;;;;;;-1.61;100.00;100148.28;5608959;31;33947;-74
2023/12/20 06:30:40;;;;;;;145.98;53.92;;;;;;;-1.59;100.00;100138.59;5607827;31;33999;-73
2023/12/20 06:33:43;;;;;;;129.60;52.65;;;;;;;-1.52;100.00;100143.31;5609512;31;35013;-74
2023/12/20 06:36:47;;;;;;;148.32;54.90;;;;;;;-1.49;100.00;100150.09;5609062;31;34708;-73
2023/12/20 06:39:50;;;;;;;149.18;55.33;;;;;;;-1.51;100.00;100162.37;5608874;31;34124;-74
2023/12/20 06:42:53;;;;;;;152.15;57.22;;;;;;;-1.46;100.00;100171.56;5608518;31;34107;-74
2023/12/20 06:46:07;;;;;;;247.00;61.95;;;;;;;-1.49;100.00;100181.31;5608071;31;34582;-73
2023/12/20 06:49:10;;;;;;;184.70;57.03;;;;;;;-1.38;100.00;100189.28;5607905;31;34126;-73
2023/12/20 06:52:13;;;;;;;247.35;57.72;;;;;;;-1.39;100.00;100192.81;5608868;31;34059;-73
2023/12/20 06:55:17;;;;;;;225.65;61.05;;;;;;;-1.41;100.00;100203.34;5608229;31;34938;-73
2023/12/20 06:58:20;;;;;;;206.15;56.72;;;;;;;-1.42;100.00;100206.03;5606595;31;35330;-73
2023/12/20 07:01:23;;;;;;;169.87;53.38;;;;;;;-1.39;100.00;100205.81;5608450;31;34561;-72
2023/12/20 07:04:26;;;;;;;150.18;48.97;;;;;;;-1.39;100.00;100195.41;5607706;31;34425;-72
2023/12/20 07:07:29;;;;;;;179.05;51.80;;;;;;;-1.46;100.00;100210.59;5609063;31;34598;-73
2023/12/20 07:10:32;;;;;;;255.02;58.67;;;;;;;-1.68;100.00;100205.03;5608300;31;34628;-72
2023/12/20 07:13:35;;;;;;;148.50;48.80;;;;;;;-1.59;100.00;100207.06;5607836;31;34086;-72
2023/12/20 07:16:38;;;;;;;174.55;43.80;;;;;;;-1.54;100.00;100199.81;5608483;31;34116;-74
2023/12/20 07:19:42;;;;;;;241.55;50.38;;;;;;;-1.71;100.00;100188.78;5608418;31;34047;-74
2023/12/20 07:22:45;;;;;;;254.10;55.45;;;;;;;-1.78;100.00;100185.72;5608364;31;33624;-73
2023/12/20 07:25:48;;;;;;;309.30;51.25;;;;;;;-1.92;100.00;100185.72;5608351;31;33502;-73
2023/12/20 07:28:51;;;;;;;213.65;51.53;;;;;;;-2.02;100.00;100187.22;5608190;31;34125;-73
2023/12/20 07:31:55;;;;;;;248.52;52.55;;;;;;;-1.97;100.00;100196.41;5607971;31;34011;-73
2023/12/20 07:34:58;;;;;;;220.30;54.60;;;;;;;-1.82;100.00;100187.69;5608324;31;34906;-73
2023/12/20 07:38:02;;;;;;;237.88;50.17;;;;;;;-1.88;100.00;100193.25;5608087;31;34178;-72
2023/12/20 07:41:05;;;;;;;193.50;55.08;;;;;;;-1.82;100.00;100199.84;5607649;31;34538;-72
2023/12/20 07:44:08;;;;;;;263.27;58.50;;;;;;;-1.79;100.00;100207.44;5607940;31;34687;-73
2023/12/20 07:47:13;;;;;;;193.50;43.65;;;;;;;-1.65;100.00;100209.22;5608141;31;33892;-73
2023/12/20 07:50:16;;;;;;;172.77;45.35;;;;;;;-1.68;100.00;100197.22;5608152;31;34690;-73
2023/12/20 07:53:19;;;;;;;310.88;61.15;;;;;;;-1.69;100.00;100194.75;5607994;31;34624;-74
2023/12/20 07:56:23;;;;;;;565.60;77.87;;;;;;;-1.65;100.00;100188.41;5607550;31;34793;-72
2023/12/20 07:59:25;;;;;;;100.85;43.15;;;;;;;-1.54;100.00;100189.41;5607624;31;34022;-71
2023/12/20 08:02:35;;;;;;;302.85;61.35;;;;;;;-1.69;100.00;100181.75;5607706;31;34141;-71
2023/12/20 08:05:40;;;;;;;138.73;47.22;;;;;;;-1.57;100.00;100180.97;5608090;31;34581;-72
2023/12/20 08:08:43;;;;;;;106.25;42.38;;;;;;;-1.70;100.00;100177.47;5607444;31;33892;-72
2023/12/20 08:11:48;;;;;;;132.87;46.60;;;;;;;-1.67;100.00;100179.87;5607589;31;34538;-72
2023/12/20 08:14:54;;;;;;;107.60;43.28;;;;;;;-1.70;100.00;100167.06;5607818;31;34161;-72
2023/12/20 08:17:57;;;;;;;94.70;42.13;;;;;;;-1.82;100.00;100173.84;5607586;31;34180;-72
2023/12/20 08:21:01;;;;;;;79.53;40.65;;;;;;;-1.73;100.00;100168.06;5607293;31;33925;-71
2023/12/20 08:24:04;;;;;;;142.93;47.15;;;;;;;-1.63;100.00;100163.13;5607253;31;34014;-71
2023/12/20 08:27:09;;;;;;;79.50;40.58;;;;;;;-1.77;100.00;100172.63;5607448;31;34597;-71
2023/12/20 08:30:12;;;;;;;91.43;43.87;;;;;;;-1.74;100.00;100176.78;5606535;31;34899;-72
2023/12/20 08:33:15;;;;;;;131.90;49.95;;;;;;;-1.87;100.00;100173.28;5607283;31;34690;-71
2023/12/20 08:36:21;;;;;;;80.12;41.80;;;;;;;-1.65;100.00;100180.63;5607577;31;34081;-71
2023/12/20 08:39:24;;;;;;;83.30;42.22;;;;;;;-1.69;100.00;100187.75;5607448;31;34029;-71
2023/12/20 08:42:31;;;;;;;79.78;41.65;;;;;;;-1.55;100.00;100185.13;5607427;31;34085;-71
2023/12/20 08:45:33;;;;;;;84.82;42.97;;;;;;;-1.65;100.00;100178.00;5607228;31;34089;-72
2023/12/20 08:48:37;;;;;;;72.47;40.60;;;;;;;-1.55;100.00;100177.31;5607655;31;34739;-72
2023/12/20 08:51:40;;;;;;;79.97;43.38;;;;;;;-1.36;100.00;100180.47;5607407;31;33792;-73
2023/12/20 08:54:44;;;;;;;81.45;42.83;;;;;;;-1.27;100.00;100186.84;5606475;31;34292;-72
2023/12/20 08:57:47;;;;;;;77.07;43.20;;;;;;;-1.37;100.00;100176.19;5606972;31;34461;-72
2023/12/20 09:00:51;;;;;;;76.18;42.45;;;;;;;-1.23;100.00;100175.31;5606899;31;34174;-71
2023/12/20 09:03:53;;;;;;;80.47;43.42;;;;;;;-1.05;100.00;100181.09;5607042;31;34659;-73
2023/12/20 09:06:59;;;;;;;86.87;47.15;;;;;;;-1.58;100.00;100187.94;5607223;31;35498;-72
2023/12/20 09:10:03;;;;;;;93.85;49.55;;;;;;;-1.79;100.00;100191.84;5606100;31;34717;-72
2023/12/20 09:13:07;;;;;;;90.87;48.50;;;;;;;-1.40;100.00;100184.16;5606612;31;34041;-73
2023/12/20 09:16:10;;;;;;;92.90;48.65;;;;;;;-1.36;100.00;100179.63;5607069;31;35001;-73
2023/12/20 09:19:13;;;;;;;98.30;50.63;;;;;;;-1.32;100.00;100175.87;5606939;31;34201;-73
2023/12/20 09:22:16;;;;;;;81.95;45.58;;;;;;;-0.93;100.00;100177.69;5609469;31;34804;-73
2023/12/20 09:25:19;;;;;;;87.43;47.03;;;;;;;-0.92;100.00;100181.97;5609561;31;34378;-73
2023/12/20 09:28:21;;;;;;;80.35;44.38;;;;;;;-0.79;100.00;100182.00;5609574;31;35535;-74
2023/12/20 09:31:24;;;;;;;79.45;44.47;;;;;;;-0.95;100.00;100172.56;5609258;31;35419;-74
2023/12/20 09:34:27;;;;;;;91.63;49.70;;;;;;;-0.81;100.00;100165.63;5609658;31;33905;-74
2023/12/20 09:37:30;;;;;;;93.87;48.20;;;;;;;-1.06;100.00;100149.00;5609369;31;34093;-73
2023/12/20 09:40:36;;;;;;;78.47;46.35;;;;;;;-0.63;100.00;100152.22;5609400;31;34699;-74
2023/12/20 09:43:40;;;;;;;85.22;46.80;;;;;;;-0.32;100.00;100147.53;5609303;31;34787;-75
2023/12/20 09:46:48;;;;;;;84.37;47.00;;;;;;;-0.17;100.00;100138.69;5609591;31;33510;-75
2023/12/20 09:49:52;;;;;;;79.43;45.72;;;;;;;-0.04;100.00;100140.31;5609334;31;34095;-74
2023/12/20 09:52:59;;;;;;;84.45;47.65;;;;;;;0.15;100.00;100141.66;5609373;31;34934;-74
2023/12/20 09:56:03;;;;;;;73.57;44.30;;;;;;;0.29;100.00;100133.72;5609125;31;34682;-74
2023/12/20 09:59:05;;;;;;;71.32;44.15;;;;;;;0.05;100.00;100117.19;5609008;31;34469;-74
2023/12/20 10:02:14;;;;;;;75.95;45.03;;;;;;;0.02;100.00;100122.59;5609192;31;34644;-75
2023/12/20 10:05:20;;;;;;;81.07;49.03;;;;;;;0.32;100.00;100120.44;5609057;31;34571;-74
2023/12/20 10:08:24;;;;;;;86.03;48.90;;;;;;;-0.12;100.00;100115.72;5608765;31;34764;-75
2023/12/20 10:11:28;;;;;;;89.25;49.03;;;;;;;0.39;100.00;100108.59;5608434;31;33912;-74
2023/12/20 10:14:32;;;;;;;89.07;49.83;;;;;;;0.50;100.00;100110.44;5608780;31;34019;-74
2023/12/20 10:17:35;;;;;;;87.57;50.83;;;;;;;0.28;100.00;100103.34;5608866;31;33964;-75
2023/12/20 10:20:40;;;;;;;87.65;50.78;;;;;;;-0.17;100.00;100100.41;5608974;31;33995;-74
2023/12/20 10:23:43;;;;;;;80.62;49.45;;;;;;;-0.22;100.00;100106.88;5608830;31;33975;-74
2023/12/20 10:26:46;;;;;;;82.07;49.05;;;;;;;-0.13;100.00;100099.25;5608171;31;33945;-74
2023/12/20 10:29:49;;;;;;;86.50;51.60;;;;;;;-0.48;100.00;100075.63;5608966;31;33863;-75
2023/12/20 10:32:52;;;;;;;91.72;53.13;;;;;;;-0.36;100.00;100065.31;5609265;31;34714;-74
2023/12/20 10:35:56;;;;;;;98.97;57.83;;;;;;;-0.24;100.00;100052.22;5612073;31;34079;-74
2023/12/20 10:38:59;;;;;;;99.05;56.67;;;;;;;-0.29;100.00;100048.31;5609407;31;33018;-75
2023/12/20 10:42:03;;;;;;;94.93;56.03;;;;;;;-0.12;100.00;100045.34;5610009;31;35481;-75
2023/12/20 10:45:08;;;;;;;105.15;59.78;;;;;;;0.02;100.00;100039.97;5608657;31;34635;-75
2023/12/20 10:48:12;;;;;;;111.97;63.53;;;;;;;-0.06;100.00;100026.66;5608709;31;34297;-76
2023/12/20 10:51:18;;;;;;;108.43;60.83;;;;;;;-0.01;100.00;100032.38;5608871;31;34734;-76
2023/12/20 10:54:21;;;;;;;102.72;60.30;;;;;;;0.07;100.00;100024.00;5609071;31;34058;-77
2023/12/20 10:57:27;;;;;;;101.12;59.53;;;;;;;0.17;100.00;100019.78;5610494;31;34498;-75
2023/12/20 11:00:31;;;;;;;105.57;60.75;;;;;;;0.25;100.00;100026.13;5608420;31;34727;-76
2023/12/20 11:03:39;;;;;;;107.95;62.55;;;;;;;0.34;100.00;100007.19;5608832;31;34668;-73
2023/12/20 11:06:48;;;;;;;93.72;55.58;;;;;;;0.54;100.00;100016.16;5608589;31;34662;-74
2023/12/20 11:10:00;;;;;;;89.62;55.05;;;;;;;0.60;100.00;100012.25;5608693;31;34027;-74
2023/12/20 11:13:10;;;;;;;80.72;51.17;;;;;;;0.78;100.00;100021.34;5608417;31;33967;-74
2023/12/20 11:16:15;;;;;;;78.10;49.65;;;;;;;0.87;100.00;100005.00;5607733;31;34764;-74
2023/12/20 11:19:23;;;;;;;84.25;52.97;;;;;;;0.94;100.00;100005.34;5608641;31;34649;-77
2023/12/20 11:22:29;;;;;;;84.35;52.55;;;;;;;1.02;100.00;99984.69;5608513;31;34005;-73
2023/12/20 11:25:52;;;;;;;86.40;53.85;;;;;;;1.17;100.00;99975.69;5608264;31;34732;-74
2023/12/20 11:29:33;;;;;;;95.62;57.80;;;;;;;1.24;100.00;99963.84;5607789;31;34221;-74
2023/12/20 11:32:37;;;;;;;98.95;56.88;;;;;;;1.33;100.00;99962.28;5608877;31;34045;-74
2023/12/20 11:35:40;;;;;;;101.87;59.42;;;;;;;1.37;100.00;99954.09;5608553;31;34284;-75
2023/12/20 11:38:59;;;;;;;102.75;60.85;;;;;;;1.58;100.00;99946.34;5608290;31;34027;-74
2023/12/20 11:42:06;;;;;;;114.37;62.92;;;;;;;1.64;100.00;99938.03;5608485;31;34138;-73
2023/12/20 11:45:10;;;;;;;111.57;62.60;;;;;;;1.80;100.00;99948.91;5595453;31;34806;-74
2023/12/20 11:48:13;;;;;;;112.45;62.70;;;;;;;1.95;100.00;99962.53;5608977;31;34167;-75
2023/12/20 11:51:17;;;;;;;114.47;63.97;;;;;;;2.04;100.00;99959.19;5608163;31;34678;-74
2023/12/20 11:54:20;;;;;;;112.55;62.42;;;;;;;2.30;100.00;99952.69;5608116;31;34073;-74
2023/12/20 11:57:23;;;;;;;113.28;63.00;;;;;;;2.51;100.00;99944.84;5607995;31;34295;-75
2023/12/20 12:00:30;;;;;;;116.20;62.70;;;;;;;2.78;100.00;99955.63;5608076;31;34178;-76
2023/12/20 12:03:33;;;;;;;108.50;59.28;;;;;;;3.23;100.00;99950.91;5607958;31;34110;-75
2023/12/20 12:06:35;;;;;;;92.32;53.87;;;;;;;3.77;100.00;99949.72;5608042;31;34043;-75
2023/12/20 12:09:38;;;;;;;78.05;46.85;;;;;;;4.54;100.00;99937.44;5608091;31;35098;-74
2023/12/20 12:12:41;;;;;;;44.92;28.77;;;;;;;5.22;100.00;99946.84;5607031;31;34072;-74
2023/12/20 12:15:46;;;;;;;34.67;24.48;;;;;;;5.16;100.00;99929.00;5607958;31;34629;-75
2023/12/20 12:18:56;;;;;;;32.95;23.02;;;;;;;5.10;100.00;99921.69;5608191;31;34020;-74
2023/12/20 12:22:13;;;;;;;31.92;22.52;;;;;;;5.12;100.00;99921.53;5607661;31;34005;-74
2023/12/20 12:25:17;;;;;;;29.00;20.73;;;;;;;5.02;100.00;99923.38;5607672;31;34631;-74
2023/12/20 12:28:21;;;;;;;30.05;21.25;;;;;;;5.01;100.00;99930.44;5607591;31;34274;-74
2023/12/20 12:31:26;;;;;;;26.35;18.20;;;;;;;4.98;100.00;99925.47;5607676;31;34067;-73
2023/12/20 12:34:32;;;;;;;25.20;17.15;;;;;;;5.01;100.00;99933.06;5607439;31;34178;-73
2023/12/20 12:37:38;;;;;;;24.12;15.68;;;;;;;5.11;100.00;99919.88;5606933;31;33366;-72
2023/12/20 12:40:43;;;;;;;23.42;16.37;;;;;;;5.09;100.00;99927.06;5606686;31;34062;-73
2023/12/20 12:43:47;;;;;;;21.08;15.65;;;;;;;5.06;100.00;99936.09;5606412;31;34012;-72
2023/12/20 12:46:53;;;;;;;21.75;15.75;;;;;;;4.97;100.00;99934.31;5607313;31;34796;-74
2023/12/20 12:49:56;;;;;;;21.95;15.40;;;;;;;4.92;100.00;99928.66;5607588;31;34252;-73
2023/12/20 12:53:00;;;;;;;24.10;15.93;;;;;;;4.88;100.00;99948.31;5607334;31;33964;-72
2023/12/20 12:56:06;;;;;;;20.70;15.13;;;;;;;4.82;100.00;99935.75;5609228;31;34652;-72
2023/12/20 12:59:09;;;;;;;21.58;15.43;;;;;;;4.72;100.00;99940.19;5610902;31;35290;-71
2023/12/20 13:02:13;;;;;;;19.27;14.35;;;;;;;4.58;100.00;99938.81;5609795;31;34405;-73
2023/12/20 13:05:17;;;;;;;20.40;15.70;;;;;;;4.51;100.00;99953.47;5609949;31;34534;-72
2023/12/20 13:08:26;;;;;;;20.85;15.73;;;;;;;4.43;100.00;99944.62;5609784;31;35010;-73
2023/12/20 13:11:31;;;;;;;20.88;14.75;;;;;;;4.30;100.00;99935.25;5609951;31;34005;-73
2023/12/20 13:14:36;;;;;;;20.45;15.57;;;;;;;4.36;100.00;99937.31;5609130;31;34053;-72
2023/12/20 13:17:39;;;;;;;18.70;14.32;;;;;;;4.34;100.00;99935.81;5609380;31;33992;-73
2023/12/20 13:20:44;;;;;;;20.15;14.80;;;;;;;4.36;100.00;99931.22;5608780;31;34051;-73
2023/12/20 13:23:56;;;;;;;17.92;13.75;;;;;;;4.32;100.00;99935.09;5608170;31;34365;-72
2023/12/20 13:27:00;;;;;;;18.70;13.85;;;;;;;4.37;100.00;99917.13;5608724;31;34038;-72
2023/12/20 13:30:07;;;;;;;18.45;13.73;;;;;;;4.30;100.00;99913.41;5609228;31;33878;-72
2023/12/20 13:33:11;;;;;;;16.60;13.25;;;;;;;4.20;100.00;99926.56;5596211;31;33948;-72
2023/12/20 13:36:15;;;;;;;18.75;13.75;;;;;;;4.03;100.00;99921.97;5609658;31;33745;-72
2023/12/20 13:39:21;;;;;;;19.33;14.35;;;;;;;4.12;100.00;99922.94;5609469;31;35008;-73
2023/12/20 13:42:27;;;;;;;19.80;13.62;;;;;;;4.09;100.00;99916.19;5609526;31;34688;-71
2023/12/20 13:45:30;;;;;;;21.05;14.25;;;;;;;4.02;100.00;99920.31;5609480;31;34706;-72